createdAt,value
2018-06-30T16:11:20.496Z,24.70
2018-06-30T16:13:48.948Z,24.70
2018-06-30T16:16:17.276Z,24.70
2018-06-30T16:18:45.607Z,24.70
2018-06-30T16:21:13.984Z,24.80
2018-06-30T16:23:42.335Z,24.80
2018-06-30T16:26:10.735Z,24.80
2018-06-30T16:28:39.069Z,24.80
2018-06-30T16:31:07.371Z,24.90
2018-06-30T16:33:35.711Z,24.90
2018-06-30T16:36:04.031Z,24.90
2018-06-30T16:38:32.328Z,24.90
2018-06-30T16:41:00.663Z,25.00
2018-06-30T16:43:28.962Z,25.00
2018-06-30T16:45:57.260Z,25.00
2018-06-30T16:48:25.556Z,25.00
2018-06-30T16:50:53.893Z,25.00
2018-06-30T16:53:23.304Z,25.00
2018-06-30T16:55:52.360Z,25.00
2018-06-30T16:58:21.468Z,25.00
2018-06-30T17:00:50.574Z,25.10
2018-06-30T17:03:19.672Z,25.10
2018-06-30T17:05:48.756Z,25.00
2018-06-30T17:08:17.860Z,25.10
2018-06-30T17:10:46.935Z,25.10
2018-06-30T17:13:16.007Z,25.20
2018-06-30T17:15:45.308Z,25.20
2018-06-30T17:18:14.375Z,25.20
2018-06-30T17:20:43.458Z,25.10
2018-06-30T17:23:12.692Z,25.00
2018-06-30T17:25:41.755Z,25.00
2018-06-30T17:28:10.816Z,25.00
2018-06-30T17:30:39.912Z,25.00
2018-06-30T17:33:08.983Z,25.00
2018-06-30T17:35:38.060Z,25.00
2018-06-30T17:41:20.348Z,25.30
2018-06-30T17:43:49.549Z,27.50
2018-06-30T17:46:18.710Z,28.10
2018-06-30T17:48:47.836Z,28.30
2018-06-30T18:41:31.272Z,27.90
2018-06-30T18:46:29.126Z,27.80
2018-06-30T18:48:58.328Z,27.80
2018-06-30T19:36:20.588Z,26.50
2018-06-30T19:41:02.458Z,25.40
2018-06-30T19:43:31.584Z,25.10
2018-06-30T19:46:00.718Z,24.90
2018-06-30T19:48:29.833Z,24.80
2018-06-30T19:50:58.961Z,24.70
2018-06-30T19:53:28.099Z,24.50
2018-06-30T19:55:57.240Z,24.50
2018-06-30T19:58:26.316Z,24.40
2018-06-30T20:00:55.402Z,24.20
2018-06-30T20:03:24.580Z,24.10
2018-06-30T20:15:07.530Z,25.30
2018-06-30T20:22:34.040Z,24.90
2018-06-30T20:25:03.137Z,25.00
2018-06-30T20:27:32.208Z,25.00
2018-06-30T20:30:01.309Z,25.00
2018-06-30T20:32:30.669Z,25.00
2018-06-30T20:34:59.873Z,25.00
2018-06-30T20:37:28.967Z,25.00
2018-06-30T20:39:58.072Z,25.00
2018-06-30T20:42:27.147Z,25.00
2018-06-30T20:44:56.316Z,25.00
2018-06-30T20:47:25.392Z,25.00
2018-06-30T20:49:54.453Z,25.00
2018-06-30T20:52:23.552Z,25.00
2018-06-30T20:54:52.683Z,24.90
2018-06-30T20:57:21.770Z,24.90
2018-06-30T20:59:50.861Z,24.90
2018-06-30T21:02:19.945Z,24.90
2018-06-30T21:04:49.045Z,24.90
2018-06-30T21:07:18.140Z,24.80
2018-06-30T21:09:47.235Z,24.90
2018-06-30T21:12:16.299Z,24.80
2018-06-30T21:14:45.403Z,24.80
2018-06-30T21:17:14.488Z,24.80
2018-06-30T21:19:43.594Z,24.80
2018-06-30T21:22:12.857Z,24.80
2018-06-30T21:24:41.934Z,24.70
2018-06-30T21:27:11.013Z,24.70
2018-06-30T21:29:40.097Z,24.70
2018-06-30T21:32:09.167Z,24.60
2018-06-30T21:34:38.230Z,24.50
2018-06-30T21:37:07.324Z,24.50
2018-06-30T21:39:36.388Z,24.40
2018-06-30T21:42:05.449Z,24.40
2018-06-30T21:44:34.571Z,24.40
2018-06-30T21:47:03.659Z,24.50
2018-06-30T21:49:32.727Z,24.40
2018-06-30T21:52:01.781Z,24.40
2018-06-30T21:54:30.875Z,24.30
2018-06-30T21:56:59.953Z,24.20
2018-06-30T21:59:29.040Z,24.20
2018-06-30T22:01:58.113Z,24.20
2018-06-30T22:04:27.182Z,24.20
2018-06-30T22:06:56.297Z,24.10
2018-06-30T22:09:25.427Z,24.10
2018-06-30T22:11:54.500Z,24.10
2018-06-30T22:14:23.580Z,24.10
2018-06-30T22:16:52.623Z,24.10
2018-06-30T22:19:21.713Z,24.10
2018-06-30T22:21:50.775Z,24.00
2018-06-30T22:24:19.848Z,24.00
2018-06-30T22:26:48.932Z,24.10
2018-06-30T22:31:46.657Z,24.10
2018-06-30T22:34:15.743Z,24.00
2018-06-30T22:36:44.799Z,24.10
2018-06-30T22:39:13.844Z,24.10
2018-06-30T22:41:42.950Z,24.10
2018-06-30T22:44:11.983Z,24.10
2018-06-30T22:49:09.743Z,24.00
2018-06-30T22:51:38.800Z,24.00
2018-06-30T22:54:07.857Z,24.00
2018-06-30T22:56:36.906Z,24.00
2018-06-30T22:59:05.988Z,24.00
2018-06-30T23:01:35.110Z,24.00
2018-06-30T23:04:04.167Z,24.00
2018-06-30T23:06:33.215Z,24.00
2018-06-30T23:09:02.267Z,24.00
2018-06-30T23:11:31.318Z,23.90
2018-06-30T23:14:00.381Z,23.80
2018-06-30T23:16:29.464Z,23.80
2018-06-30T23:18:58.508Z,23.80
2018-06-30T23:23:56.264Z,23.80
2018-06-30T23:26:25.308Z,23.80
2018-06-30T23:28:54.376Z,23.80
2018-06-30T23:31:23.444Z,23.70
2018-06-30T23:33:52.515Z,23.70
2018-06-30T23:36:21.587Z,23.70
2018-06-30T23:38:50.647Z,23.70
2018-06-30T23:41:19.723Z,23.70
2018-06-30T23:43:48.780Z,23.70
2018-06-30T23:46:17.849Z,23.60
2018-06-30T23:51:15.571Z,23.60
2018-06-30T23:53:44.648Z,23.60
2018-06-30T23:56:13.706Z,23.60
2018-06-30T23:58:42.760Z,23.50
